Главная страница
METAR-TAF:

METAR-TAF

Аэропорты :

Millville, Нью-Джерси, США

широта: 39-21-58N, долгота: 075-04-42W, высота над уровнем моря: 26 м

Текущие метеонаблюдения

Эта сводка был подготовлена 6 минут назад, в 19:54 UTC
Ветер 10 Узел от северный
Температура 30°C
Влажность 43%
Давление 1013 hPa
Видимость: 16.1 км
небольшая облачность на высоте 9000 фута

METAR: KMIV 181954Z AUTO 36010KT 10SM FEW090 30/16 A2990 RMK AO2 SLPNO T03000156

Время: 16:00 (20:00 UTC)

Прогноз

Эта сводка был подготовлена 2 часа и 39 минут назад, в 17:21 UTC
Прогноз действительный с 18-го 18 UTC до 19-го 18 UTC
Ветер 8 Узел от северно-северо-западный
Видимость: 10 км
небольшая облачность на высоте 5000 фута
С 18-го 2300 UTC
Ветер Узел от северный
Видимость: 10 км
ясное небо
С 19-го 1300 UTC
Ветер 4 Узел от северный
Видимость: 10 км
ясное небо

TAF: KMIV 181721Z 1818/1918 34008KT P6SM FEW050 FM182300 00000KT P6SM SKC FM191300 01004KT P6SM SKC

Метеонаблюдения и прогнозы для более 4000 аэропортов (сводки METAR и TAF).

Имеющиеся станции представлены на карте желтыми и красными точками.

Чтобы увидеть название станции, наведите на нее мышь.

Затем щелкните, чтобы увидеть метеонаблюдения и метеопрогнозы.

Управление картой: чтобы увеличить масштаб, щелкните зеленые кнопки с черным крестиком; чтобы уменьшить масштаб, щелкните зеленую кнопку с тире; для просмотра соседних карт щелкайте зеленые стрелки.


METAR-TAF: